sensor_id;sensor_type;location;lat;lon;timestamp;pressure;altitude;pressure_sealevel;temperature;humidity
30724;BME280;17473;52.286;20.930;2023-01-30T00:01:03;99976.22;;;2.43;90.57
30724;BME280;17473;52.286;20.930;2023-01-30T00:03:30;99980.44;;;2.41;90.88
30724;BME280;17473;52.286;20.930;2023-01-30T00:05:57;99974.41;;;2.42;90.94
30724;BME280;17473;52.286;20.930;2023-01-30T00:08:24;99973.34;;;2.39;90.99
30724;BME280;17473;52.286;20.930;2023-01-30T00:10:51;99963.78;;;2.39;91.05
30724;BME280;17473;52.286;20.930;2023-01-30T00:13:18;99960.50;;;2.42;90.79
30724;BME280;17473;52.286;20.930;2023-01-30T00:15:47;99950.97;;;2.42;90.65
30724;BME280;17473;52.286;20.930;2023-01-30T00:18:14;99938.72;;;2.41;91.17
30724;BME280;17473;52.286;20.930;2023-01-30T00:20:41;99928.56;;;2.46;90.92
30724;BME280;17473;52.286;20.930;2023-01-30T00:23:08;99925.78;;;2.43;90.76
30724;BME280;17473;52.286;20.930;2023-01-30T00:25:34;99929.31;;;2.58;90.31
30724;BME280;17473;52.286;20.930;2023-01-30T00:28:02;99922.22;;;2.41;90.47
30724;BME280;17473;52.286;20.930;2023-01-30T00:30:29;99919.69;;;2.42;90.65
30724;BME280;17473;52.286;20.930;2023-01-30T00:32:58;99911.50;;;2.51;90.19
30724;BME280;17473;52.286;20.930;2023-01-30T00:35:25;99910.25;;;2.44;90.80
30724;BME280;17473;52.286;20.930;2023-01-30T00:37:58;99902.97;;;2.39;90.96
30724;BME280;17473;52.286;20.930;2023-01-30T00:40:27;99892.53;;;2.39;91.00
30724;BME280;17473;52.286;20.930;2023-01-30T00:42:55;99878.31;;;2.33;91.30
30724;BME280;17473;52.286;20.930;2023-01-30T00:45:43;99890.75;;;2.38;91.36
30724;BME280;17473;52.286;20.930;2023-01-30T00:48:30;99882.94;;;2.53;90.59
30724;BME280;17473;52.286;20.930;2023-01-30T00:50:57;99875.38;;;2.42;91.06
30724;BME280;17473;52.286;20.930;2023-01-30T00:53:24;99861.81;;;2.48;91.11
30724;BME280;17473;52.286;20.930;2023-01-30T00:55:53;99861.81;;;2.33;91.55
30724;BME280;17473;52.286;20.930;2023-01-30T00:58:22;99852.72;;;2.41;91.47
30724;BME280;17473;52.286;20.930;2023-01-30T01:00:50;99847.50;;;2.41;91.34
30724;BME280;17473;52.286;20.930;2023-01-30T01:03:18;99838.81;;;2.41;91.28
30724;BME280;17473;52.286;20.930;2023-01-30T01:05:45;99836.47;;;2.45;91.09
30724;BME280;17473;52.286;20.930;2023-01-30T01:08:14;99814.72;;;2.30;91.56
30724;BME280;17473;52.286;20.930;2023-01-30T01:10:41;99805.75;;;2.40;91.35
30724;BME280;17473;52.286;20.930;2023-01-30T01:13:08;99807.00;;;2.31;91.19
30724;BME280;17473;52.286;20.930;2023-01-30T01:15:36;99791.63;;;2.36;91.00
30724;BME280;17473;52.286;20.930;2023-01-30T01:18:04;99785.69;;;2.39;90.69
30724;BME280;17473;52.286;20.930;2023-01-30T01:20:31;99777.44;;;2.31;91.05
30724;BME280;17473;52.286;20.930;2023-01-30T01:22:58;99768.63;;;2.29;91.29
30724;BME280;17473;52.286;20.930;2023-01-30T01:25:25;99766.66;;;2.25;91.22
30724;BME280;17473;52.286;20.930;2023-01-30T01:27:53;99762.16;;;2.37;90.92
30724;BME280;17473;52.286;20.930;2023-01-30T01:30:21;99756.75;;;2.49;90.26
30724;BME280;17473;52.286;20.930;2023-01-30T01:32:48;99756.63;;;2.47;89.72
30724;BME280;17473;52.286;20.930;2023-01-30T01:35:15;99742.81;;;2.33;90.73
30724;BME280;17473;52.286;20.930;2023-01-30T01:37:43;99746.97;;;2.30;90.44
30724;BME280;17473;52.286;20.930;2023-01-30T01:40:17;99731.03;;;2.40;90.02
30724;BME280;17473;52.286;20.930;2023-01-30T01:43:24;99731.19;;;2.27;90.25
30724;BME280;17473;52.286;20.930;2023-01-30T01:45:57;99725.94;;;2.42;89.80
30724;BME280;17473;52.286;20.930;2023-01-30T01:48:40;99716.31;;;2.41;89.82
30724;BME280;17473;52.286;20.930;2023-01-30T01:51:18;99712.97;;;2.43;89.47
30724;BME280;17473;52.286;20.930;2023-01-30T01:54:01;99701.56;;;2.41;89.68
30724;BME280;17473;52.286;20.930;2023-01-30T01:56:30;99699.78;;;2.40;89.74
30724;BME280;17473;52.286;20.930;2023-01-30T01:59:21;99695.47;;;2.41;89.71
30724;BME280;17473;52.286;20.930;2023-01-30T02:01:55;99695.22;;;2.36;89.88
30724;BME280;17473;52.286;20.930;2023-01-30T02:04:25;99681.50;;;2.24;90.41
30724;BME280;17473;52.286;20.930;2023-01-30T02:07:14;99672.31;;;2.30;90.20
30724;BME280;17473;52.286;20.930;2023-01-30T02:09:43;99675.78;;;2.46;89.36
30724;BME280;17473;52.286;20.930;2023-01-30T02:12:13;99683.16;;;2.38;89.48
30724;BME280;17473;52.286;20.930;2023-01-30T02:14:40;99677.88;;;2.37;89.34
30724;BME280;17473;52.286;20.930;2023-01-30T02:17:09;99672.72;;;2.38;88.98
30724;BME280;17473;52.286;20.930;2023-01-30T02:23:03;99670.03;;;2.37;88.92
30724;BME280;17473;52.286;20.930;2023-01-30T02:28:59;99669.19;;;2.53;87.53
30724;BME280;17473;52.286;20.930;2023-01-30T02:31:42;99666.59;;;2.53;87.64
30724;BME280;17473;52.286;20.930;2023-01-30T02:34:25;99663.47;;;2.43;88.02
30724;BME280;17473;52.286;20.930;2023-01-30T02:40:14;99648.66;;;2.42;88.04
30724;BME280;17473;52.286;20.930;2023-01-30T02:45:31;99640.09;;;2.45;87.80
30724;BME280;17473;52.286;20.930;2023-01-30T02:50:42;99617.88;;;2.52;86.95
30724;BME280;17473;52.286;20.930;2023-01-30T02:53:11;99618.84;;;2.37;87.53
30724;BME280;17473;52.286;20.930;2023-01-30T02:55:41;99610.13;;;2.37;87.24
30724;BME280;17473;52.286;20.930;2023-01-30T02:58:08;99608.72;;;2.27;87.12
30724;BME280;17473;52.286;20.930;2023-01-30T03:13:24;99569.16;;;2.34;85.13
30724;BME280;17473;52.286;20.930;2023-01-30T03:16:21;99566.56;;;2.34;84.83
30724;BME280;17473;52.286;20.930;2023-01-30T03:18:51;99564.50;;;2.45;84.48
30724;BME280;17473;52.286;20.930;2023-01-30T03:21:18;99555.22;;;2.33;84.64
30724;BME280;17473;52.286;20.930;2023-01-30T03:23:46;99542.63;;;2.25;84.92
30724;BME280;17473;52.286;20.930;2023-01-30T03:26:21;99534.38;;;2.17;85.38
30724;BME280;17473;52.286;20.930;2023-01-30T03:28:51;99523.88;;;2.15;85.19
30724;BME280;17473;52.286;20.930;2023-01-30T03:31:18;99518.03;;;2.19;85.01
30724;BME280;17473;52.286;20.930;2023-01-30T03:33:45;99508.69;;;2.23;85.00
30724;BME280;17473;52.286;20.930;2023-01-30T03:36:13;99502.16;;;2.31;84.80
30724;BME280;17473;52.286;20.930;2023-01-30T03:38:40;99495.06;;;2.29;84.96
30724;BME280;17473;52.286;20.930;2023-01-30T03:41:07;99492.19;;;2.24;85.35
30724;BME280;17473;52.286;20.930;2023-01-30T03:43:34;99492.69;;;2.17;85.97
30724;BME280;17473;52.286;20.930;2023-01-30T03:46:01;99479.91;;;2.22;86.22
30724;BME280;17473;52.286;20.930;2023-01-30T03:48:28;99475.13;;;2.29;86.24
30724;BME280;17473;52.286;20.930;2023-01-30T03:50:56;99484.00;;;2.16;86.93
30724;BME280;17473;52.286;20.930;2023-01-30T03:53:23;99474.38;;;2.15;87.25
30724;BME280;17473;52.286;20.930;2023-01-30T03:55:50;99468.38;;;2.16;87.53
30724;BME280;17473;52.286;20.930;2023-01-30T03:58:17;99462.44;;;2.02;88.04
30724;BME280;17473;52.286;20.930;2023-01-30T04:00:44;99470.19;;;2.01;88.57
30724;BME280;17473;52.286;20.930;2023-01-30T04:03:11;99457.47;;;2.07;88.60
30724;BME280;17473;52.286;20.930;2023-01-30T04:05:38;99457.84;;;1.98;88.75
30724;BME280;17473;52.286;20.930;2023-01-30T04:08:05;99442.66;;;1.90;89.23
30724;BME280;17473;52.286;20.930;2023-01-30T04:10:32;99435.22;;;1.97;88.86
30724;BME280;17473;52.286;20.930;2023-01-30T04:12:59;99432.56;;;1.96;88.59
30724;BME280;17473;52.286;20.930;2023-01-30T04:15:26;99419.16;;;1.88;88.59
30724;BME280;17473;52.286;20.930;2023-01-30T04:17:53;99423.94;;;1.80;88.91
30724;BME280;17473;52.286;20.930;2023-01-30T04:20:20;99419.63;;;1.81;89.23
30724;BME280;17473;52.286;20.930;2023-01-30T04:22:47;99400.69;;;1.83;88.93
30724;BME280;17473;52.286;20.930;2023-01-30T04:25:14;99390.03;;;1.79;89.00
30724;BME280;17473;52.286;20.930;2023-01-30T04:27:42;99387.56;;;1.82;88.57
30724;BME280;17473;52.286;20.930;2023-01-30T04:30:10;99383.28;;;1.82;88.21
30724;BME280;17473;52.286;20.930;2023-01-30T04:32:37;99372.38;;;1.73;88.35
30724;BME280;17473;52.286;20.930;2023-01-30T04:35:05;99366.91;;;1.68;88.23
30724;BME280;17473;52.286;20.930;2023-01-30T04:37:32;99373.81;;;1.68;88.09
30724;BME280;17473;52.286;20.930;2023-01-30T04:39:59;99367.81;;;1.69;88.17
30724;BME280;17473;52.286;20.930;2023-01-30T04:42:26;99355.09;;;1.75;87.75
30724;BME280;17473;52.286;20.930;2023-01-30T04:44:53;99348.13;;;1.74;86.94
30724;BME280;17473;52.286;20.930;2023-01-30T04:57:56;99337.22;;;1.81;85.62
30724;BME280;17473;52.286;20.930;2023-01-30T05:00:23;99338.03;;;1.80;85.51
30724;BME280;17473;52.286;20.930;2023-01-30T05:02:51;99323.19;;;1.61;85.77
30724;BME280;17473;52.286;20.930;2023-01-30T05:05:18;99324.13;;;1.63;86.05
30724;BME280;17473;52.286;20.930;2023-01-30T05:07:46;99305.63;;;1.75;85.68
30724;BME280;17473;52.286;20.930;2023-01-30T05:10:13;99310.41;;;1.66;85.78
30724;BME280;17473;52.286;20.930;2023-01-30T05:12:40;99311.59;;;1.72;85.40
30724;BME280;17473;52.286;20.930;2023-01-30T05:15:08;99294.78;;;1.66;85.58
30724;BME280;17473;52.286;20.930;2023-01-30T05:17:36;99286.88;;;1.64;85.63
30724;BME280;17473;52.286;20.930;2023-01-30T05:20:11;99278.31;;;1.67;86.25
30724;BME280;17473;52.286;20.930;2023-01-30T05:22:39;99268.28;;;1.56;86.20
30724;BME280;17473;52.286;20.930;2023-01-30T05:25:06;99276.00;;;1.55;86.41
30724;BME280;17473;52.286;20.930;2023-01-30T05:27:34;99259.16;;;1.65;86.10
30724;BME280;17473;52.286;20.930;2023-01-30T05:30:01;99255.28;;;1.56;86.24
30724;BME280;17473;52.286;20.930;2023-01-30T05:32:28;99256.91;;;1.54;86.22
30724;BME280;17473;52.286;20.930;2023-01-30T05:34:57;99248.75;;;1.48;86.21
30724;BME280;17473;52.286;20.930;2023-01-30T05:37:24;99242.41;;;1.60;86.38
30724;BME280;17473;52.286;20.930;2023-01-30T05:39:51;99253.97;;;1.65;85.97
30724;BME280;17473;52.286;20.930;2023-01-30T05:42:18;99250.38;;;1.63;85.47
30724;BME280;17473;52.286;20.930;2023-01-30T05:44:45;99248.88;;;1.68;85.63
30724;BME280;17473;52.286;20.930;2023-01-30T05:47:12;99243.78;;;1.69;85.13
30724;BME280;17473;52.286;20.930;2023-01-30T05:49:39;99240.13;;;1.66;85.16
30724;BME280;17473;52.286;20.930;2023-01-30T05:52:06;99242.00;;;1.68;84.69
30724;BME280;17473;52.286;20.930;2023-01-30T05:54:33;99230.28;;;1.60;84.89
30724;BME280;17473;52.286;20.930;2023-01-30T05:57:01;99232.31;;;1.66;84.33
30724;BME280;17473;52.286;20.930;2023-01-30T05:59:28;99215.31;;;1.56;84.75
30724;BME280;17473;52.286;20.930;2023-01-30T06:01:55;99215.56;;;1.61;84.88
30724;BME280;17473;52.286;20.930;2023-01-30T06:04:22;99216.03;;;1.70;84.50
30724;BME280;17473;52.286;20.930;2023-01-30T06:06:49;99214.91;;;1.65;84.55
30724;BME280;17473;52.286;20.930;2023-01-30T06:09:16;99192.16;;;1.61;84.31
30724;BME280;17473;52.286;20.930;2023-01-30T06:11:43;99178.66;;;1.51;84.43
30724;BME280;17473;52.286;20.930;2023-01-30T06:14:10;99179.13;;;1.61;83.93
30724;BME280;17473;52.286;20.930;2023-01-30T06:16:37;99175.19;;;1.51;84.21
30724;BME280;17473;52.286;20.930;2023-01-30T06:19:05;99189.06;;;1.51;84.01
30724;BME280;17473;52.286;20.930;2023-01-30T06:21:32;99186.78;;;1.58;83.92
30724;BME280;17473;52.286;20.930;2023-01-30T06:23:59;99189.53;;;1.61;83.76
30724;BME280;17473;52.286;20.930;2023-01-30T06:26:26;99191.31;;;1.62;83.94
30724;BME280;17473;52.286;20.930;2023-01-30T06:28:53;99191.03;;;1.74;83.25
30724;BME280;17473;52.286;20.930;2023-01-30T06:31:20;99181.97;;;1.65;83.19
30724;BME280;17473;52.286;20.930;2023-01-30T06:33:47;99185.25;;;1.61;83.19
30724;BME280;17473;52.286;20.930;2023-01-30T06:36:15;99182.66;;;1.61;82.75
30724;BME280;17473;52.286;20.930;2023-01-30T06:38:42;99177.88;;;1.70;82.30
30724;BME280;17473;52.286;20.930;2023-01-30T06:41:09;99175.13;;;1.67;82.07
30724;BME280;17473;52.286;20.930;2023-01-30T06:43:36;99163.97;;;1.70;82.02
30724;BME280;17473;52.286;20.930;2023-01-30T06:46:03;99154.31;;;1.67;81.72
30724;BME280;17473;52.286;20.930;2023-01-30T06:48:30;99151.84;;;1.70;81.24
30724;BME280;17473;52.286;20.930;2023-01-30T06:50:57;99151.66;;;1.66;81.38
30724;BME280;17473;52.286;20.930;2023-01-30T06:53:24;99154.97;;;1.63;81.13
30724;BME280;17473;52.286;20.930;2023-01-30T06:55:58;99149.25;;;1.70;80.96
30724;BME280;17473;52.286;20.930;2023-01-30T06:58:25;99147.53;;;1.71;80.64
30724;BME280;17473;52.286;20.930;2023-01-30T07:00:52;99143.75;;;1.64;80.14
30724;BME280;17473;52.286;20.930;2023-01-30T07:03:19;99138.75;;;1.69;80.17
30724;BME280;17473;52.286;20.930;2023-01-30T07:05:47;99128.34;;;1.69;79.90
30724;BME280;17473;52.286;20.930;2023-01-30T07:08:15;99129.09;;;1.66;79.73
30724;BME280;17473;52.286;20.930;2023-01-30T07:10:44;99139.06;;;1.75;79.56
30724;BME280;17473;52.286;20.930;2023-01-30T07:13:12;99127.69;;;1.73;79.71
30724;BME280;17473;52.286;20.930;2023-01-30T07:15:39;99124.34;;;1.76;79.30
30724;BME280;17473;52.286;20.930;2023-01-30T07:18:06;99126.19;;;1.78;79.29
30724;BME280;17473;52.286;20.930;2023-01-30T07:20:34;99114.09;;;1.79;79.09
30724;BME280;17473;52.286;20.930;2023-01-30T07:23:01;99109.31;;;1.70;79.37
30724;BME280;17473;52.286;20.930;2023-01-30T07:25:29;99106.13;;;1.76;79.51
30724;BME280;17473;52.286;20.930;2023-01-30T07:27:59;99093.53;;;1.67;80.13
30724;BME280;17473;52.286;20.930;2023-01-30T07:30:31;99090.22;;;1.69;80.96
30724;BME280;17473;52.286;20.930;2023-01-30T07:32:59;99078.09;;;1.70;80.92
30724;BME280;17473;52.286;20.930;2023-01-30T07:35:29;99090.56;;;1.77;81.57
30724;BME280;17473;52.286;20.930;2023-01-30T07:37:57;99084.16;;;1.70;82.17
30724;BME280;17473;52.286;20.930;2023-01-30T07:40:25;99086.56;;;1.84;82.41
30724;BME280;17473;52.286;20.930;2023-01-30T07:42:59;99072.66;;;1.83;82.77
30724;BME280;17473;52.286;20.930;2023-01-30T07:45:39;99067.03;;;1.74;83.44
30724;BME280;17473;52.286;20.930;2023-01-30T07:48:08;99073.34;;;1.61;83.96
30724;BME280;17473;52.286;20.930;2023-01-30T07:50:36;99065.00;;;1.68;84.15
30724;BME280;17473;52.286;20.930;2023-01-30T07:53:08;99061.75;;;1.54;84.35
30724;BME280;17473;52.286;20.930;2023-01-30T07:55:36;99065.44;;;1.60;85.22
30724;BME280;17473;52.286;20.930;2023-01-30T07:58:03;99060.03;;;1.55;85.72
30724;BME280;17473;52.286;20.930;2023-01-30T08:00:31;99053.13;;;1.55;85.71
30724;BME280;17473;52.286;20.930;2023-01-30T08:02:58;99052.00;;;1.68;85.85
30724;BME280;17473;52.286;20.930;2023-01-30T08:05:25;99039.59;;;1.63;85.99
30724;BME280;17473;52.286;20.930;2023-01-30T08:07:55;99039.75;;;1.66;86.19
30724;BME280;17473;52.286;20.930;2023-01-30T08:10:22;99037.56;;;1.57;86.65
30724;BME280;17473;52.286;20.930;2023-01-30T08:12:50;99045.22;;;1.72;86.70
30724;BME280;17473;52.286;20.930;2023-01-30T08:15:17;99036.22;;;1.65;86.79
30724;BME280;17473;52.286;20.930;2023-01-30T08:17:54;99037.25;;;1.69;86.77
30724;BME280;17473;52.286;20.930;2023-01-30T08:20:22;99025.97;;;1.68;86.80
30724;BME280;17473;52.286;20.930;2023-01-30T08:22:50;99030.66;;;1.58;86.97
30724;BME280;17473;52.286;20.930;2023-01-30T08:25:17;99033.34;;;1.59;87.43
30724;BME280;17473;52.286;20.930;2023-01-30T08:27:44;99020.84;;;1.70;87.18
30724;BME280;17473;52.286;20.930;2023-01-30T08:30:12;99018.28;;;1.71;86.88
30724;BME280;17473;52.286;20.930;2023-01-30T08:32:39;99020.84;;;1.70;87.24
30724;BME280;17473;52.286;20.930;2023-01-30T08:35:07;99020.25;;;1.76;87.52
30724;BME280;17473;52.286;20.930;2023-01-30T08:37:34;99025.44;;;1.76;87.18
30724;BME280;17473;52.286;20.930;2023-01-30T08:40:01;99022.91;;;1.77;86.92
30724;BME280;17473;52.286;20.930;2023-01-30T08:42:29;98990.09;;;1.61;87.31
30724;BME280;17473;52.286;20.930;2023-01-30T08:44:56;99009.44;;;1.68;87.31
30724;BME280;17473;52.286;20.930;2023-01-30T08:47:23;99000.63;;;1.64;87.52
30724;BME280;17473;52.286;20.930;2023-01-30T08:49:50;99001.53;;;1.65;87.36
30724;BME280;17473;52.286;20.930;2023-01-30T08:52:19;98998.09;;;1.66;87.27
30724;BME280;17473;52.286;20.930;2023-01-30T08:54:46;98992.97;;;1.67;87.56
30724;BME280;17473;52.286;20.930;2023-01-30T08:57:14;98989.59;;;1.70;87.32
30724;BME280;17473;52.286;20.930;2023-01-30T08:59:41;98985.69;;;1.80;87.12
30724;BME280;17473;52.286;20.930;2023-01-30T09:02:10;98979.41;;;1.75;87.25
30724;BME280;17473;52.286;20.930;2023-01-30T09:04:38;98986.06;;;1.87;87.17
30724;BME280;17473;52.286;20.930;2023-01-30T09:07:05;98978.06;;;1.83;87.03
30724;BME280;17473;52.286;20.930;2023-01-30T09:09:32;98971.97;;;1.82;87.24
30724;BME280;17473;52.286;20.930;2023-01-30T09:11:59;98971.56;;;1.93;87.33
30724;BME280;17473;52.286;20.930;2023-01-30T09:14:26;98944.47;;;1.89;87.24
30724;BME280;17473;52.286;20.930;2023-01-30T09:16:53;98961.34;;;1.97;86.63
30724;BME280;17473;52.286;20.930;2023-01-30T09:19:26;98948.97;;;1.92;87.18
30724;BME280;17473;52.286;20.930;2023-01-30T09:21:54;98951.97;;;2.01;86.84
30724;BME280;17473;52.286;20.930;2023-01-30T09:24:22;98941.56;;;2.01;86.79
30724;BME280;17473;52.286;20.930;2023-01-30T09:26:53;98953.06;;;2.06;86.14
30724;BME280;17473;52.286;20.930;2023-01-30T09:29:24;98941.81;;;2.07;86.48
30724;BME280;17473;52.286;20.930;2023-01-30T09:31:52;98944.59;;;2.10;86.18
30724;BME280;17473;52.286;20.930;2023-01-30T09:34:19;98939.16;;;2.06;85.69
30724;BME280;17473;52.286;20.930;2023-01-30T09:36:46;98923.34;;;2.01;85.84
30724;BME280;17473;52.286;20.930;2023-01-30T09:39:13;98934.63;;;2.01;85.78
30724;BME280;17473;52.286;20.930;2023-01-30T09:55:41;98890.50;;;2.05;86.91
30724;BME280;17473;52.286;20.930;2023-01-30T09:58:18;98887.56;;;2.16;86.94
30724;BME280;17473;52.286;20.930;2023-01-30T10:00:46;98883.31;;;2.18;86.80
30724;BME280;17473;52.286;20.930;2023-01-30T10:03:22;98881.63;;;2.21;86.51
30724;BME280;17473;52.286;20.930;2023-01-30T10:05:59;98892.25;;;2.25;86.33
30724;BME280;17473;52.286;20.930;2023-01-30T10:12:03;98870.19;;;2.17;86.77
30724;BME280;17473;52.286;20.930;2023-01-30T10:17:54;98854.56;;;2.17;87.27
30724;BME280;17473;52.286;20.930;2023-01-30T10:20:33;98848.47;;;2.16;87.52
30724;BME280;17473;52.286;20.930;2023-01-30T10:26:18;98851.22;;;2.19;87.63
30724;BME280;17473;52.286;20.930;2023-01-30T10:31:44;98829.91;;;2.09;88.40
30724;BME280;17473;52.286;20.930;2023-01-30T10:34:36;98824.03;;;2.13;88.41
30724;BME280;17473;52.286;20.930;2023-01-30T10:37:31;98817.63;;;2.26;88.42
30724;BME280;17473;52.286;20.930;2023-01-30T10:40:04;98810.28;;;2.38;88.24
30724;BME280;17473;52.286;20.930;2023-01-30T10:45:23;98801.09;;;2.25;88.75
30724;BME280;17473;52.286;20.930;2023-01-30T10:48:29;98802.81;;;2.25;89.08
30724;BME280;17473;52.286;20.930;2023-01-30T10:51:38;98791.38;;;2.21;88.98
30724;BME280;17473;52.286;20.930;2023-01-30T10:57:52;98802.19;;;2.30;89.32
30724;BME280;17473;52.286;20.930;2023-01-30T11:05:50;98795.13;;;2.28;89.86
30724;BME280;17473;52.286;20.930;2023-01-30T11:08:31;98789.03;;;2.27;89.87
30724;BME280;17473;52.286;20.930;2023-01-30T11:11:00;98792.00;;;2.37;89.65
30724;BME280;17473;52.286;20.930;2023-01-30T11:13:31;98765.91;;;2.35;89.39
30724;BME280;17473;52.286;20.930;2023-01-30T11:16:05;98779.16;;;2.41;89.43
30724;BME280;17473;52.286;20.930;2023-01-30T11:18:47;98764.72;;;2.49;89.21
30724;BME280;17473;52.286;20.930;2023-01-30T11:21:36;98769.16;;;2.52;88.98
30724;BME280;17473;52.286;20.930;2023-01-30T11:24:21;98767.56;;;2.56;89.29
30724;BME280;17473;52.286;20.930;2023-01-30T11:26:49;98767.84;;;2.62;89.27
30724;BME280;17473;52.286;20.930;2023-01-30T11:29:29;98751.25;;;2.60;89.15
30724;BME280;17473;52.286;20.930;2023-01-30T11:32:10;98746.16;;;2.63;89.49
30724;BME280;17473;52.286;20.930;2023-01-30T11:34:41;98746.16;;;2.86;89.03
30724;BME280;17473;52.286;20.930;2023-01-30T11:37:32;98754.19;;;2.92;88.32
30724;BME280;17473;52.286;20.930;2023-01-30T11:42:49;98729.22;;;2.97;88.33
30724;BME280;17473;52.286;20.930;2023-01-30T11:45:18;98745.81;;;2.99;88.52
30724;BME280;17473;52.286;20.930;2023-01-30T11:47:53;98743.03;;;2.94;88.49
30724;BME280;17473;52.286;20.930;2023-01-30T11:50:39;98739.59;;;2.95;88.71
30724;BME280;17473;52.286;20.930;2023-01-30T11:55:50;98732.53;;;2.93;89.15
30724;BME280;17473;52.286;20.930;2023-01-30T11:58:35;98722.75;;;2.87;89.66
30724;BME280;17473;52.286;20.930;2023-01-30T12:01:04;98726.13;;;2.85;89.64
30724;BME280;17473;52.286;20.930;2023-01-30T12:03:49;98724.44;;;2.85;89.78
30724;BME280;17473;52.286;20.930;2023-01-30T12:06:28;98718.94;;;2.79;90.06
30724;BME280;17473;52.286;20.930;2023-01-30T12:08:57;98721.56;;;2.79;90.37
30724;BME280;17473;52.286;20.930;2023-01-30T12:14:41;98709.84;;;2.68;90.88
30724;BME280;17473;52.286;20.930;2023-01-30T12:17:43;98713.22;;;2.65;91.42
30724;BME280;17473;52.286;20.930;2023-01-30T12:20:24;98712.28;;;2.63;91.27
30724;BME280;17473;52.286;20.930;2023-01-30T12:26:34;98710.13;;;2.75;91.04
30724;BME280;17473;52.286;20.930;2023-01-30T12:32:16;98720.47;;;2.72;91.38
30724;BME280;17473;52.286;20.930;2023-01-30T12:34:45;98704.88;;;2.74;91.00
30724;BME280;17473;52.286;20.930;2023-01-30T12:37:35;98706.66;;;2.75;91.18
30724;BME280;17473;52.286;20.930;2023-01-30T12:43:27;98703.13;;;2.74;91.09
30724;BME280;17473;52.286;20.930;2023-01-30T12:51:52;98696.34;;;2.78;91.00
30724;BME280;17473;52.286;20.930;2023-01-30T12:59:56;98696.56;;;2.84;90.85
30724;BME280;17473;52.286;20.930;2023-01-30T13:12:45;98693.22;;;2.88;91.57
30724;BME280;17473;52.286;20.930;2023-01-30T13:18:17;98698.56;;;2.91;91.03
30724;BME280;17473;52.286;20.930;2023-01-30T13:21:34;98698.44;;;2.88;91.35
30724;BME280;17473;52.286;20.930;2023-01-30T13:27:31;98702.41;;;3.01;91.13
30724;BME280;17473;52.286;20.930;2023-01-30T13:30:02;98687.84;;;2.84;91.87
30724;BME280;17473;52.286;20.930;2023-01-30T13:32:39;98688.94;;;2.89;92.33
30724;BME280;17473;52.286;20.930;2023-01-30T13:35:23;98689.88;;;2.91;92.15
30724;BME280;17473;52.286;20.930;2023-01-30T13:37:53;98681.88;;;2.86;92.38
30724;BME280;17473;52.286;20.930;2023-01-30T13:40:27;98677.66;;;2.90;92.63
30724;BME280;17473;52.286;20.930;2023-01-30T13:43:14;98681.88;;;2.86;92.68
30724;BME280;17473;52.286;20.930;2023-01-30T13:45:45;98677.84;;;2.94;92.66
30724;BME280;17473;52.286;20.930;2023-01-30T13:48:35;98671.72;;;2.94;92.90
30724;BME280;17473;52.286;20.930;2023-01-30T13:56:59;98683.31;;;2.78;94.16
30724;BME280;17473;52.286;20.930;2023-01-30T13:59:53;98686.38;;;2.90;93.30
30724;BME280;17473;52.286;20.930;2023-01-30T14:02:26;98684.59;;;2.89;93.32
30724;BME280;17473;52.286;20.930;2023-01-30T14:04:55;98692.31;;;2.86;94.16
30724;BME280;17473;52.286;20.930;2023-01-30T14:12:47;98696.19;;;2.97;93.12
30724;BME280;17473;52.286;20.930;2023-01-30T14:20:47;98711.09;;;3.00;92.97
30724;BME280;17473;52.286;20.930;2023-01-30T14:23:32;98709.41;;;3.02;92.99
30724;BME280;17473;52.286;20.930;2023-01-30T14:26:00;98712.34;;;3.11;92.74
30724;BME280;17473;52.286;20.930;2023-01-30T14:31:00;98705.13;;;3.04;92.83
30724;BME280;17473;52.286;20.930;2023-01-30T14:38:36;98711.13;;;3.02;93.03
30724;BME280;17473;52.286;20.930;2023-01-30T14:51:46;98709.66;;;3.08;93.29
30724;BME280;17473;52.286;20.930;2023-01-30T14:57:14;98704.78;;;3.18;93.24
30724;BME280;17473;52.286;20.930;2023-01-30T14:59:55;98709.69;;;3.10;93.00
30724;BME280;17473;52.286;20.930;2023-01-30T15:02:54;98703.56;;;3.09;93.61
30724;BME280;17473;52.286;20.930;2023-01-30T15:05:38;98708.94;;;3.14;93.36
30724;BME280;17473;52.286;20.930;2023-01-30T15:08:17;98712.34;;;3.11;93.40
30724;BME280;17473;52.286;20.930;2023-01-30T15:11:07;98709.81;;;3.13;93.47
30724;BME280;17473;52.286;20.930;2023-01-30T15:31:02;98719.94;;;3.05;94.44
30724;BME280;17473;52.286;20.930;2023-01-30T15:33:31;98720.66;;;3.01;94.54
30724;BME280;17473;52.286;20.930;2023-01-30T15:35:59;98719.13;;;3.06;94.61
30724;BME280;17473;52.286;20.930;2023-01-30T15:38:32;98720.16;;;3.11;94.35
30724;BME280;17473;52.286;20.930;2023-01-30T15:41:05;98717.91;;;3.21;93.76
30724;BME280;17473;52.286;20.930;2023-01-30T15:49:53;98731.44;;;3.35;93.41
30724;BME280;17473;52.286;20.930;2023-01-30T15:52:34;98746.41;;;3.39;93.24
30724;BME280;17473;52.286;20.930;2023-01-30T15:55:03;98751.63;;;3.39;93.06
30724;BME280;17473;52.286;20.930;2023-01-30T15:57:35;98736.72;;;3.36;93.07
30724;BME280;17473;52.286;20.930;2023-01-30T16:00:15;98745.78;;;3.46;92.80
30724;BME280;17473;52.286;20.930;2023-01-30T16:02:45;98732.59;;;3.43;92.79
30724;BME280;17473;52.286;20.930;2023-01-30T16:05:18;98743.63;;;3.58;92.21
30724;BME280;17473;52.286;20.930;2023-01-30T16:07:48;98742.66;;;3.56;92.11
30724;BME280;17473;52.286;20.930;2023-01-30T16:10:22;98740.94;;;3.57;91.97
30724;BME280;17473;52.286;20.930;2023-01-30T16:12:53;98741.22;;;3.65;91.70
30724;BME280;17473;52.286;20.930;2023-01-30T16:18:31;98749.56;;;3.80;90.94
30724;BME280;17473;52.286;20.930;2023-01-30T16:21:14;98733.09;;;3.81;90.56
30724;BME280;17473;52.286;20.930;2023-01-30T16:26:18;98732.41;;;3.87;90.34
30724;BME280;17473;52.286;20.930;2023-01-30T16:28:49;98733.25;;;3.86;90.27
30724;BME280;17473;52.286;20.930;2023-01-30T16:31:17;98730.59;;;3.84;89.82
30724;BME280;17473;52.286;20.930;2023-01-30T16:33:51;98743.41;;;3.78;89.96